Hollister, CA

5:50 AM PST on February 22, 2017 (GMT -0800)
Hollister airline and sunnyslope | | Change Station
Active Advisory: Small Craft Advisory

Elev 100 ft 36.85 °N, 121.40 °W | Updated 1 second ago

Scattered Clouds
Scattered Clouds
45.2 °F
Feels Like 45 °F
N
0.0
Wind Variable Wind from SW

Today
High -- | Low -- °F
--% Chance of Precip.
Yesterday
High -- | Low -- °F
Precip. -- in
Pressure 30.27 in
Visibility 3.0 miles
Clouds Scattered Clouds 1600 ft
Windchill 45 °F
Dew Point 45 °F
Humidity 99%
Rainfall in
Snow Depth Not available.
6:45 AM 5:53 PM
Waning Crescent, 17% visible
METAR KCVH 221335Z AUTO 00000KT 3SM SCT016 06/06 A3027 RMK AO1
Pressure 30.27 in
Visibility 3.0 miles
Clouds Scattered Clouds 1600 ft
Windchill 45 °F
Dew Point 45 °F
Humidity 99%
Rainfall in
Snow Depth Not available.
6:45 AM 5:53 PM
Waning Crescent, 17% visible
METAR KCVH 221335Z AUTO 00000KT 3SM SCT016 06/06 A3027 RMK AO1

Get Your Daily Forecast Email!

Thanks for signing up!

Be on the lookout for a verification email in your inbox.

You'll start receiving the daily forecast at 8 AM.

×

10-Day Weather Forecast

Almanac

Astronomy

Feb. 22, 2017 Rise Set
Actual Time
Civil Twilight
Nautical Twilight
Astronomical Twilight
Moon
Length of Visible Light
Length of Day
Tomorrow will be .
, % of the Moon is Illuminated

Today's Extremes

State Highs State Lows

Community

WunderPhotos

Upload Photos

1,962,540 photos uploaded!

WunderBlog® & News

Nearby

Air Quality

  Air Quality AQ Index Pollutant
Not available.

Snow Depth

Station Depth Elevation

Earthquake Activity

City Distance Mag. Time & Date
Minimum magnitude displayed is 2.5.

Coastal Water Temperatures

Place Temperature

Stations

Nearby Weather Stations

Station Location Temp. Windchill Dew Point Humidity Wind Precip. Elev Updated Type
                   

Watches & Warnings

Small Craft Advisory
Issued: 2:16 AM PST Feb. 22, 2017 – National Weather Service

... Small Craft Advisory in effect from 2 PM this afternoon to
3 am PST Thursday...

The National Weather Service San Francisco has issued a Small
Craft Advisory... which is in effect from 2 PM this afternoon to
3 am PST Thursday.

* Winds and waves: see the coastal waters forecast (cwfmtr) or
our marine Page at http://weather.Gov/sanfrancisco/marine.Php
for more details.

Precautionary/preparedness actions...

A Small Craft Advisory means that wind speeds of 21 to 33 knots
are expected to produce hazardous wave conditions to small craft.
Inexperienced mariners... especially those operating smaller
vessels should avoid navigating in these conditions.